Williamsport, KY (41271)

4:27 AM EDT on July 04, 2015 (GMT -0400)
West Van Lear | | Change Station
CLOSE
Current Station
Personal Weather Station
Location: West Van Lear, KY
Elevation: 610 ft
Nearby Weather Stations

Elev 610 ft 37.79 °N, 82.79 °W | Updated 8 minutes ago

Overcast
Overcast
68.7 °F
Feels Like 68.7 °F
N
0.0
Wind Variable Wind from East

Today
High -- | Low -- °F
--% Chance of Precip.
Yesterday
High -- | Low -- °F
Precip. -- in
6:13 AM 8:56 PM
Waning Gibbous, 93% visible
Pressure 29.92 in
Visibility 5.0 miles
Clouds Overcast 400 ft
Dew Point 66 °F
Humidity 92%
Rainfall 0.00 in
Snow Depth Not available.
UV 0 out of 12
Pollen .50 out of 12
Air Quality Not available.
Flu Activity Not available.
METAR KSJS 040815Z AUTO 22003KT 5SM BR OVC004 20/20 A2992 RMK AO2 T01970195

More Conditions Fewer Conditions

Pressure 29.92 in
Visibility 5.0 miles
Clouds Overcast 400 ft
Dew Point 66 °F
Humidity 92%
Rainfall 0.00 in
Snow Depth Not available.
UV 0 out of 12
Pollen .50 out of 12
Air Quality Not available.
Flu Activity Not available.
METAR KSJS 040815Z AUTO 22003KT 5SM BR OVC004 20/20 A2992 RMK AO2 T01970195

More Conditions Fewer Conditions

10-Day Weather Forecast

×

Almanac

Astronomy

Jul. 04, 2015 Rise Set
Actual Time
Civil Twilight
Nautical Twilight
Astronomical Twilight
Moon
Length of Visible Light
Length of Day
Tomorrow will be .
, % of the Moon is Illuminated

Today's Extremes

State Highs State Lows

Community

WunderPhotos

Upload Photos

1,834,931 photos uploaded!

WunderBlogs® & News

Nearby

Air Quality

  Air Quality AQ Index Pollutant
Not available.

Snow Depth

Station Depth Elevation

Earthquake Activity

City Distance Mag. Time & Date
Minimum magnitude displayed is 2.5.

Coastal Water Temperatures

Place Temperature

Stations

Nearby Weather Stations

Station Location Temp. Windchill Dew Point Humidity Wind Precip. Elev Updated Type